createdAt,value
2022-10-08T00:01:01.255Z,101275.44
2022-10-08T00:03:30.906Z,101273.38
2022-10-08T00:06:00.029Z,101275.44
2022-10-08T00:08:29.262Z,101277.13
2022-10-08T00:10:58.164Z,101275.25
2022-10-08T00:13:26.347Z,101271.06
2022-10-08T00:15:53.236Z,101274.78
2022-10-08T00:18:21.337Z,101277.50
2022-10-08T00:20:48.519Z,101276.03
2022-10-08T00:23:16.890Z,101277.69
2022-10-08T00:25:44.641Z,101280.41
2022-10-08T00:28:13.654Z,101273.97
2022-10-08T00:30:41.532Z,101277.03
2022-10-08T00:33:08.927Z,101267.69
2022-10-08T00:35:40.030Z,101272.28
2022-10-08T00:38:07.615Z,101270.41
2022-10-08T00:40:44.686Z,101274.16
2022-10-08T00:43:15.581Z,101266.66
2022-10-08T00:45:46.912Z,101262.28
2022-10-08T00:48:25.614Z,101259.75
2022-10-08T00:50:52.590Z,101257.25
2022-10-08T00:53:19.279Z,101260.78
2022-10-08T00:55:45.857Z,101265.56
2022-10-08T00:58:20.180Z,101260.97
2022-10-08T01:00:47.751Z,101254.88
2022-10-08T01:03:14.502Z,101252.16
2022-10-08T01:06:07.189Z,101249.84
2022-10-08T01:08:33.698Z,101247.78
2022-10-08T01:11:11.930Z,101233.22
2022-10-08T01:14:04.214Z,101230.69
2022-10-08T01:16:54.232Z,101232.56
2022-10-08T01:19:54.936Z,101234.63
2022-10-08T01:22:49.334Z,101232.75
2022-10-08T01:25:45.675Z,101225.84
2022-10-08T01:28:22.173Z,101222.09
2022-10-08T01:30:59.433Z,101229.97
2022-10-08T01:33:33.856Z,101234.63
2022-10-08T01:36:04.236Z,101221.28
2022-10-08T01:38:33.586Z,101221.16
2022-10-08T01:41:06.269Z,101212.00
2022-10-08T01:43:37.946Z,101211.84
2022-10-08T01:46:14.242Z,101209.13
2022-10-08T01:48:42.268Z,101211.00
2022-10-08T01:51:33.101Z,101209.50
2022-10-08T01:54:03.379Z,101205.28
2022-10-08T01:56:33.596Z,101203.63
2022-10-08T01:59:08.094Z,101197.34
2022-10-08T02:01:50.354Z,101199.63
2022-10-08T02:04:35.148Z,101198.59
2022-10-08T02:07:08.459Z,101200.25
2022-10-08T02:09:41.917Z,101194.38
2022-10-08T02:12:10.088Z,101191.00
2022-10-08T02:14:41.230Z,101186.06
2022-10-08T02:17:17.830Z,101186.44
2022-10-08T02:20:22.592Z,101184.56
2022-10-08T02:23:03.460Z,101189.31
2022-10-08T02:25:44.470Z,101182.22
2022-10-08T02:28:32.108Z,101183.25
2022-10-08T02:31:15.336Z,101177.66
2022-10-08T02:34:00.716Z,101175.13
2022-10-08T02:36:34.523Z,101179.91
2022-10-08T02:39:05.286Z,101180.94
2022-10-08T02:41:40.871Z,101185.97
2022-10-08T02:44:14.473Z,101185.13
2022-10-08T02:46:44.344Z,101189.72
2022-10-08T02:49:16.752Z,101192.22
2022-10-08T02:51:49.443Z,101188.50
2022-10-08T02:54:20.198Z,101187.47
2022-10-08T02:57:15.219Z,101186.25
2022-10-08T02:59:43.128Z,101186.44
2022-10-08T03:02:16.177Z,101182.69
2022-10-08T03:04:53.715Z,101189.81
2022-10-08T03:07:23.049Z,101185.41
2022-10-08T03:09:52.044Z,101188.09
2022-10-08T03:12:19.200Z,101178.50
2022-10-08T03:14:49.367Z,101185.59
2022-10-08T03:17:22.720Z,101185.78
2022-10-08T03:19:49.299Z,101187.47
2022-10-08T03:22:16.079Z,101184.75
2022-10-08T03:24:42.650Z,101189.31
2022-10-08T03:27:09.201Z,101187.25
2022-10-08T03:29:35.872Z,101183.91
2022-10-08T03:32:02.422Z,101182.03
2022-10-08T03:34:29.130Z,101183.06
2022-10-08T03:36:55.704Z,101183.47
2022-10-08T03:39:22.266Z,101179.06
2022-10-08T03:41:48.843Z,101177.00
2022-10-08T03:44:15.400Z,101176.56
2022-10-08T03:46:41.958Z,101195.31
2022-10-08T03:49:08.550Z,101188.22
2022-10-08T03:51:35.301Z,101197.00
2022-10-08T03:54:01.880Z,101194.28
2022-10-08T03:56:28.586Z,101191.38
2022-10-08T03:58:59.637Z,101192.41
2022-10-08T04:01:28.568Z,101198.88
2022-10-08T04:03:55.366Z,101194.28
2022-10-08T04:06:22.165Z,101195.97
2022-10-08T04:08:48.746Z,101201.38
2022-10-08T04:11:17.555Z,101192.88
2022-10-08T04:13:44.628Z,101196.41
2022-10-08T04:16:16.393Z,101208.47
2022-10-08T04:18:43.600Z,101200.16
2022-10-08T04:21:13.395Z,101207.84
2022-10-08T04:23:41.342Z,101193.06
2022-10-08T04:26:08.930Z,101201.00
2022-10-08T04:28:38.867Z,101197.00
2022-10-08T04:31:12.041Z,101193.44
2022-10-08T04:33:39.129Z,101194.66
2022-10-08T04:36:11.620Z,101188.88
2022-10-08T04:38:38.357Z,101188.41
2022-10-08T04:41:15.208Z,101195.03
2022-10-08T04:43:43.856Z,101191.66
2022-10-08T04:46:14.181Z,101190.00
2022-10-08T04:48:45.085Z,101191.66
2022-10-08T04:51:11.645Z,101195.59
2022-10-08T04:53:38.500Z,101185.59
2022-10-08T04:56:17.172Z,101186.44
2022-10-08T04:58:44.614Z,101189.16
2022-10-08T05:01:13.124Z,101190.00
2022-10-08T05:03:42.604Z,101189.34
2022-10-08T05:06:10.397Z,101191.03
2022-10-08T05:08:37.463Z,101193.06
2022-10-08T05:11:04.491Z,101197.47
2022-10-08T05:13:31.149Z,101193.91
2022-10-08T05:16:03.579Z,101194.13
2022-10-08T05:18:31.781Z,101188.03
2022-10-08T05:21:02.594Z,101189.53
2022-10-08T05:23:29.174Z,101185.16
2022-10-08T05:25:55.779Z,101202.03
2022-10-08T05:28:22.390Z,101190.00
2022-10-08T05:30:49.032Z,101190.19
2022-10-08T05:33:15.632Z,101194.56
2022-10-08T05:35:42.185Z,101205.59
2022-10-08T05:38:08.768Z,101203.34
2022-10-08T05:40:35.333Z,101207.53
2022-10-08T05:43:01.886Z,101207.53
2022-10-08T05:45:28.454Z,101197.72
2022-10-08T05:47:55.692Z,101207.38
2022-10-08T05:50:22.241Z,101207.53
2022-10-08T05:52:49.393Z,101203.81
2022-10-08T05:55:16.367Z,101201.75
2022-10-08T05:57:42.935Z,101204.66
2022-10-08T06:00:10.308Z,101209.25
2022-10-08T06:02:36.876Z,101208.47
2022-10-08T06:05:03.781Z,101218.66
2022-10-08T06:07:30.380Z,101212.41
2022-10-08T06:09:56.962Z,101215.13
2022-10-08T06:12:23.554Z,101214.94
2022-10-08T06:14:50.114Z,101212.03
2022-10-08T06:17:16.679Z,101222.22
2022-10-08T06:19:43.257Z,101222.03
2022-10-08T06:22:09.852Z,101215.56
2022-10-08T06:24:36.413Z,101222.22
2022-10-08T06:27:02.981Z,101228.09
2022-10-08T06:29:29.645Z,101234.34
2022-10-08T06:31:56.229Z,101237.88
2022-10-08T06:34:23.056Z,101231.44
2022-10-08T06:36:49.625Z,101227.91
2022-10-08T06:39:17.789Z,101238.63
2022-10-08T06:41:44.689Z,101237.03
2022-10-08T06:44:13.593Z,101240.16
2022-10-08T06:46:40.510Z,101243.69
2022-10-08T06:49:07.286Z,101243.50
2022-10-08T06:51:34.645Z,101244.78
2022-10-08T06:54:07.376Z,101243.09
2022-10-08T06:56:36.085Z,101241.25
2022-10-08T06:59:03.289Z,101243.31
2022-10-08T07:01:33.372Z,101236.22
2022-10-08T07:04:01.557Z,101246.84
2022-10-08T07:06:28.579Z,101252.91
2022-10-08T07:08:57.382Z,101263.94
2022-10-08T07:11:25.118Z,101247.03
2022-10-08T07:13:52.032Z,101246.00
2022-10-08T07:16:21.608Z,101251.25
2022-10-08T07:18:50.288Z,101256.00
2022-10-08T07:21:18.737Z,101265.44
2022-10-08T07:23:45.901Z,101263.56
2022-10-08T07:26:15.161Z,101262.53
2022-10-08T07:28:48.110Z,101259.63
2022-10-08T07:31:17.310Z,101272.63
2022-10-08T07:33:44.025Z,101266.56
2022-10-08T07:36:19.393Z,101275.06
2022-10-08T07:38:45.970Z,101276.28
2022-10-08T07:41:13.112Z,101272.53
2022-10-08T07:43:43.761Z,101271.69
2022-10-08T07:46:11.931Z,101277.75
2022-10-08T07:48:39.455Z,101274.31
2022-10-08T07:51:17.367Z,101280.19
2022-10-08T07:53:44.594Z,101284.22
2022-10-08T07:56:13.149Z,101281.63
2022-10-08T07:58:40.666Z,101276.63
2022-10-08T08:01:10.445Z,101273.94
2022-10-08T08:03:37.127Z,101271.41
2022-10-08T08:06:06.979Z,101277.47
2022-10-08T08:08:35.763Z,101284.97
2022-10-08T08:11:05.043Z,101278.38
2022-10-08T08:13:36.947Z,101280.72
2022-10-08T08:16:08.459Z,101281.91
2022-10-08T08:18:37.869Z,101280.56
2022-10-08T08:21:07.260Z,101278.81
2022-10-08T08:23:36.825Z,101276.28
2022-10-08T08:26:05.580Z,101293.19
2022-10-08T08:28:32.224Z,101286.91
2022-10-08T08:31:09.114Z,101287.34
2022-10-08T08:33:35.686Z,101289.56
2022-10-08T08:36:02.329Z,101286.00
2022-10-08T08:38:28.881Z,101282.50
2022-10-08T08:41:08.095Z,101289.69
2022-10-08T08:43:37.041Z,101291.34
2022-10-08T08:46:04.197Z,101295.22
2022-10-08T08:48:34.997Z,101294.47
2022-10-08T08:51:04.171Z,101302.22
2022-10-08T08:53:31.644Z,101300.19
2022-10-08T08:56:03.041Z,101305.94
2022-10-08T08:58:58.690Z,101308.66
2022-10-08T09:01:42.872Z,101302.38
2022-10-08T09:04:18.434Z,101309.66
2022-10-08T09:06:46.279Z,101301.28
2022-10-08T09:09:36.327Z,101312.06
2022-10-08T09:12:26.721Z,101307.81
2022-10-08T09:14:56.781Z,101302.94
2022-10-08T09:17:36.435Z,101297.34
2022-10-08T09:20:03.404Z,101304.31
2022-10-08T09:22:38.669Z,101303.31
2022-10-08T09:25:17.805Z,101317.66
2022-10-08T09:27:48.434Z,101305.75
2022-10-08T09:30:30.465Z,101312.72
2022-10-08T09:33:00.467Z,101316.28
2022-10-08T09:35:27.505Z,101318.25
2022-10-08T09:37:56.679Z,101319.84
2022-10-08T09:40:25.932Z,101317.09
2022-10-08T09:43:12.209Z,101316.38
2022-10-08T09:45:44.976Z,101317.91
2022-10-08T09:48:13.079Z,101309.66
2022-10-08T09:50:54.557Z,101304.84
2022-10-08T09:53:23.897Z,101314.19
2022-10-08T09:56:03.114Z,101311.03
2022-10-08T09:58:33.628Z,101318.59
2022-10-08T10:01:03.999Z,101322.66
2022-10-08T10:03:31.929Z,101310.97
2022-10-08T10:06:02.013Z,101317.63
2022-10-08T10:08:49.780Z,101316.44
2022-10-08T10:11:26.368Z,101309.41
2022-10-08T10:13:54.826Z,101312.03
2022-10-08T10:16:31.549Z,101318.84
2022-10-08T10:19:07.461Z,101321.41
2022-10-08T10:21:59.600Z,101318.56
2022-10-08T10:25:05.769Z,101317.66
2022-10-08T10:27:42.332Z,101320.63
2022-10-08T10:30:08.993Z,101316.91
2022-10-08T10:32:46.065Z,101315.31
2022-10-08T10:35:22.168Z,101313.38
2022-10-08T10:37:54.196Z,101325.81
2022-10-08T10:40:29.824Z,101316.59
2022-10-08T10:43:18.640Z,101321.22
2022-10-08T10:45:52.309Z,101321.53
2022-10-08T10:48:19.019Z,101316.16
2022-10-08T10:51:02.232Z,101316.94
2022-10-08T10:53:38.399Z,101312.66
2022-10-08T10:56:18.774Z,101314.56
2022-10-08T10:58:59.091Z,101318.00
2022-10-08T11:01:44.111Z,101312.06
2022-10-08T11:04:23.021Z,101308.38
2022-10-08T11:07:00.545Z,101317.25
2022-10-08T11:10:09.140Z,101310.75
2022-10-08T11:12:59.167Z,101305.81
2022-10-08T11:15:52.210Z,101303.63
2022-10-08T11:18:49.862Z,101304.66
2022-10-08T11:21:44.498Z,101311.38
2022-10-08T11:24:20.900Z,101308.84
2022-10-08T11:26:57.487Z,101309.03
2022-10-08T11:29:34.142Z,101315.63
2022-10-08T11:32:01.946Z,101312.63
2022-10-08T11:34:33.090Z,101317.16
2022-10-08T11:37:16.467Z,101324.88
2022-10-08T11:40:04.547Z,101330.84
2022-10-08T11:42:40.179Z,101339.56
2022-10-08T11:45:23.174Z,101338.94
2022-10-08T11:47:53.466Z,101345.38
2022-10-08T11:50:32.467Z,101355.38
2022-10-08T11:53:14.942Z,101365.63
2022-10-08T11:55:59.052Z,101362.63
2022-10-08T11:58:29.253Z,101360.09
2022-10-08T12:01:10.269Z,101359.84
2022-10-08T12:03:43.391Z,101367.66
2022-10-08T12:06:23.813Z,101369.91
2022-10-08T12:08:53.054Z,101366.38
2022-10-08T12:11:31.582Z,101371.13
2022-10-08T12:14:13.365Z,101377.84
2022-10-08T12:16:48.857Z,101382.69
2022-10-08T12:19:38.565Z,101377.00
2022-10-08T12:22:25.376Z,101378.69
2022-10-08T12:25:00.995Z,101381.97
2022-10-08T12:27:39.217Z,101382.03
2022-10-08T12:30:14.280Z,101383.44
2022-10-08T12:32:43.926Z,101383.25
2022-10-08T12:35:25.706Z,101389.53
2022-10-08T12:37:58.957Z,101386.63
2022-10-08T12:40:41.603Z,101384.47
2022-10-08T12:43:18.525Z,101382.78
2022-10-08T12:46:17.579Z,101380.09
2022-10-08T12:48:51.547Z,101378.03
2022-10-08T12:51:45.459Z,101380.28
2022-10-08T12:54:25.277Z,101377.91
2022-10-08T12:56:52.601Z,101371.78
2022-10-08T12:59:26.571Z,101368.69
2022-10-08T13:01:54.798Z,101373.72
2022-10-08T13:04:24.650Z,101373.56
2022-10-08T13:06:53.703Z,101378.13
2022-10-08T13:09:32.057Z,101374.31
2022-10-08T13:12:03.579Z,101375.72
2022-10-08T13:14:32.012Z,101375.44
2022-10-08T13:16:58.829Z,101375.44
2022-10-08T13:19:37.952Z,101381.91
2022-10-08T13:22:07.357Z,101383.38
2022-10-08T13:24:39.793Z,101385.00
2022-10-08T13:27:21.152Z,101391.53
2022-10-08T13:29:48.100Z,101395.91
2022-10-08T13:32:14.693Z,101388.69
2022-10-08T13:34:41.218Z,101395.00
2022-10-08T13:37:11.144Z,101394.38
2022-10-08T13:39:41.056Z,101390.06
2022-10-08T13:42:11.005Z,101389.88
2022-10-08T13:44:40.376Z,101386.97
2022-10-08T13:47:14.461Z,101388.69
2022-10-08T13:49:41.053Z,101392.88
2022-10-08T13:52:13.800Z,101389.19
2022-10-08T13:54:42.336Z,101389.94
2022-10-08T13:57:10.130Z,101387.53
2022-10-08T13:59:37.022Z,101386.63
2022-10-08T14:02:04.077Z,101389.97
2022-10-08T14:04:30.917Z,101395.47
2022-10-08T14:07:00.269Z,101408.09
2022-10-08T14:09:30.430Z,101398.94
2022-10-08T14:12:01.577Z,101403.91
2022-10-08T14:14:28.705Z,101398.84
2022-10-08T14:16:55.522Z,101398.50
2022-10-08T14:19:22.516Z,101398.09
2022-10-08T14:21:51.769Z,101400.91
2022-10-08T14:24:18.550Z,101403.53
2022-10-08T14:26:45.232Z,101406.78
2022-10-08T14:29:11.777Z,101389.66
2022-10-08T14:31:38.784Z,101392.56
2022-10-08T14:34:05.589Z,101396.25
2022-10-08T14:36:36.093Z,101403.78
2022-10-08T14:39:04.610Z,101401.56
2022-10-08T14:41:32.380Z,101400.94
2022-10-08T14:43:59.589Z,101393.03
2022-10-08T14:46:26.412Z,101398.47
2022-10-08T14:48:53.068Z,101398.66
2022-10-08T14:51:19.864Z,101396.25
2022-10-08T14:53:46.449Z,101401.47
2022-10-08T14:56:13.287Z,101405.38
2022-10-08T14:58:40.379Z,101405.56
2022-10-08T15:01:07.310Z,101402.50
2022-10-08T15:03:34.503Z,101405.28
2022-10-08T15:06:01.680Z,101406.31
2022-10-08T15:08:28.609Z,101412.00
2022-10-08T15:10:55.296Z,101407.81
2022-10-08T15:13:21.950Z,101411.19
2022-10-08T15:15:48.521Z,101408.75
2022-10-08T15:18:15.727Z,101419.13
2022-10-08T15:20:42.389Z,101419.13
2022-10-08T15:23:10.448Z,101415.47
2022-10-08T15:25:37.216Z,101420.19
2022-10-08T15:28:04.346Z,101419.16
2022-10-08T15:30:31.025Z,101422.91
2022-10-08T15:33:02.988Z,101434.47
2022-10-08T15:35:33.143Z,101439.91
2022-10-08T15:38:00.031Z,101439.25
2022-10-08T15:40:29.595Z,101436.38
2022-10-08T15:42:56.187Z,101432.09
2022-10-08T15:45:22.743Z,101439.09
2022-10-08T15:47:49.307Z,101445.53
2022-10-08T15:50:15.871Z,101452.44
2022-10-08T15:52:46.170Z,101446.16
2022-10-08T15:55:13.195Z,101454.09
2022-10-08T15:57:39.836Z,101450.34
2022-10-08T16:00:07.004Z,101457.63
2022-10-08T16:02:33.594Z,101463.69
2022-10-08T16:05:00.187Z,101471.81
2022-10-08T16:07:26.825Z,101471.16
2022-10-08T16:09:53.379Z,101481.81
2022-10-08T16:12:19.938Z,101490.50
2022-10-08T16:14:46.635Z,101499.56
2022-10-08T16:17:13.347Z,101511.91
2022-10-08T16:19:40.100Z,101529.69
2022-10-08T16:22:08.067Z,101554.84
2022-10-08T16:24:34.726Z,101573.75
2022-10-08T16:27:01.312Z,101581.34
2022-10-08T16:29:28.092Z,101585.75
2022-10-08T16:31:54.789Z,101592.19
2022-10-08T16:34:23.700Z,101585.06
2022-10-08T16:36:51.263Z,101576.59
2022-10-08T16:39:20.921Z,101574.53
2022-10-08T16:41:49.016Z,101568.47
2022-10-08T16:44:17.855Z,101563.88
2022-10-08T16:46:50.396Z,101560.03
2022-10-08T16:49:22.696Z,101572.69
2022-10-08T16:51:52.000Z,101574.59
2022-10-08T16:54:18.709Z,101570.63
2022-10-08T16:56:46.425Z,101573.28
2022-10-08T16:59:19.331Z,101577.44
2022-10-08T17:01:48.908Z,101579.31
2022-10-08T17:04:16.759Z,101585.75
2022-10-08T17:06:43.806Z,101590.50
2022-10-08T17:09:11.550Z,101605.44
2022-10-08T17:11:38.238Z,101609.19
2022-10-08T17:14:07.591Z,101607.84
2022-10-08T17:16:35.289Z,101605.31
2022-10-08T17:19:03.527Z,101605.66
2022-10-08T17:21:31.134Z,101621.09
2022-10-08T17:23:58.530Z,101622.13
2022-10-08T17:26:27.531Z,101619.22
2022-10-08T17:28:54.417Z,101632.28
2022-10-08T17:31:23.561Z,101633.78
2022-10-08T17:33:50.783Z,101635.47
2022-10-08T17:36:20.408Z,101647.53
2022-10-08T17:38:50.905Z,101643.50
2022-10-08T17:41:20.502Z,101645.00
2022-10-08T17:43:48.451Z,101651.25
2022-10-08T17:46:17.761Z,101661.44
2022-10-08T17:48:45.578Z,101673.13
2022-10-08T17:51:15.653Z,101673.13
2022-10-08T17:53:43.465Z,101678.53
2022-10-08T17:56:12.600Z,101674.81
2022-10-08T17:58:39.684Z,101683.78
2022-10-08T18:01:09.096Z,101682.28
2022-10-08T18:03:36.898Z,101684.28
2022-10-08T18:06:05.014Z,101681.75
2022-10-08T18:08:32.083Z,101687.88
2022-10-08T18:11:02.970Z,101689.88
2022-10-08T18:13:29.823Z,101694.28
2022-10-08T18:15:57.058Z,101706.50
2022-10-08T18:18:23.716Z,101708.19
2022-10-08T18:20:55.104Z,101711.09
2022-10-08T18:23:22.071Z,101713.78
2022-10-08T18:25:53.612Z,101712.59
2022-10-08T18:28:21.877Z,101707.34
2022-10-08T18:30:48.980Z,101708.56
2022-10-08T18:33:15.771Z,101720.91
2022-10-08T18:35:42.484Z,101728.53
2022-10-08T18:38:09.086Z,101726.31
2022-10-08T18:40:35.687Z,101730.06
2022-10-08T18:43:02.294Z,101736.97
2022-10-08T18:45:28.903Z,101737.34
2022-10-08T18:47:55.531Z,101744.63
2022-10-08T18:50:22.116Z,101754.63
2022-10-08T18:52:48.872Z,101751.25
2022-10-08T18:55:17.206Z,101752.94
2022-10-08T18:57:44.261Z,101748.53
2022-10-08T19:00:11.396Z,101757.50
2022-10-08T19:02:38.467Z,101765.81
2022-10-08T19:05:05.564Z,101762.75
2022-10-08T19:07:32.159Z,101764.78
2022-10-08T19:09:58.716Z,101764.13
2022-10-08T19:12:25.330Z,101768.34
2022-10-08T19:14:52.073Z,101764.13
2022-10-08T19:17:18.660Z,101764.97
2022-10-08T19:19:45.236Z,101774.97
2022-10-08T19:22:11.808Z,101779.69
2022-10-08T19:24:41.014Z,101788.84
2022-10-08T19:27:07.824Z,101795.63
2022-10-08T19:29:36.005Z,101790.75
2022-10-08T19:32:02.661Z,101794.59
2022-10-08T19:34:29.324Z,101796.81
2022-10-08T19:36:56.540Z,101805.78
2022-10-08T19:39:26.581Z,101808.50
2022-10-08T19:41:53.658Z,101812.22
2022-10-08T19:44:20.720Z,101814.25
2022-10-08T19:46:47.632Z,101806.47
2022-10-08T19:49:14.550Z,101814.41
2022-10-08T19:51:41.921Z,101815.97
2022-10-08T19:54:08.508Z,101818.81
2022-10-08T19:56:35.962Z,101825.44
2022-10-08T19:59:02.573Z,101819.69
2022-10-08T20:01:31.951Z,101831.19
2022-10-08T20:06:28.621Z,101845.75
2022-10-08T20:08:58.086Z,101845.94
2022-10-08T20:11:25.415Z,101854.22
2022-10-08T20:13:54.024Z,101845.94
2022-10-08T20:16:27.224Z,101854.06
2022-10-08T20:18:58.936Z,101866.09
2022-10-08T20:21:27.278Z,101864.91
2022-10-08T20:23:54.183Z,101862.84
2022-10-08T20:26:22.658Z,101873.88
2022-10-08T20:29:11.027Z,101878.25
2022-10-08T20:31:40.397Z,101884.53
2022-10-08T20:34:11.548Z,101881.31
2022-10-08T20:36:38.200Z,101886.56
2022-10-08T20:39:05.667Z,101895.34
2022-10-08T20:41:32.757Z,101894.50
2022-10-08T20:44:02.339Z,101896.38
2022-10-08T20:46:29.361Z,101897.22
2022-10-08T20:48:56.333Z,101904.16
2022-10-08T20:51:25.992Z,101898.72
2022-10-08T20:53:58.383Z,101911.78
2022-10-08T20:56:26.789Z,101911.06
2022-10-08T20:58:54.009Z,101912.09
2022-10-08T21:01:26.318Z,101921.75
2022-10-08T21:03:54.501Z,101916.66
2022-10-08T21:06:29.801Z,101914.13
2022-10-08T21:08:58.726Z,101920.22
2022-10-08T21:11:27.807Z,101927.19
2022-10-08T21:13:54.774Z,101922.91
2022-10-08T21:16:27.616Z,101922.91
2022-10-08T21:18:57.306Z,101930.56
2022-10-08T21:21:25.093Z,101929.00
2022-10-08T21:23:51.671Z,101932.59
2022-10-08T21:26:20.145Z,101932.41
2022-10-08T21:28:49.105Z,101928.03
2022-10-08T21:31:16.511Z,101933.44
2022-10-08T21:33:45.783Z,101937.84
2022-10-08T21:36:15.016Z,101934.09
2022-10-08T21:38:42.102Z,101929.88
2022-10-08T21:41:14.240Z,101937.84
2022-10-08T21:43:48.939Z,101945.25
2022-10-08T21:46:17.952Z,101940.84
2022-10-08T21:48:48.230Z,101939.16
2022-10-08T21:51:17.275Z,101938.31
2022-10-08T21:53:49.186Z,101942.72
2022-10-08T21:56:18.362Z,101948.13
2022-10-08T21:58:48.134Z,101943.56
2022-10-08T22:01:25.139Z,101955.25
2022-10-08T22:03:59.964Z,101947.47
2022-10-08T22:06:29.283Z,101950.00
2022-10-08T22:08:56.193Z,101946.44
2022-10-08T22:11:23.363Z,101956.25
2022-10-08T22:13:50.526Z,101963.53
2022-10-08T22:16:19.365Z,101966.78
2022-10-08T22:18:46.342Z,101968.66
2022-10-08T22:21:18.511Z,101961.84
2022-10-08T22:23:45.295Z,101960.31
2022-10-08T22:26:36.493Z,101964.88
2022-10-08T22:29:04.238Z,101961.31
2022-10-08T22:31:30.954Z,101971.16
2022-10-08T22:33:58.386Z,101978.25
2022-10-08T22:36:27.441Z,101966.59
2022-10-08T22:38:54.552Z,101972.84
2022-10-08T22:41:23.811Z,101980.13
2022-10-08T22:43:51.079Z,101976.56
2022-10-08T22:46:26.326Z,101985.38
2022-10-08T22:49:00.443Z,101991.63
2022-10-08T22:51:28.564Z,101991.94
2022-10-08T22:53:55.676Z,101984.84
2022-10-08T22:56:28.304Z,101985.69
2022-10-08T22:58:55.256Z,101983.16
2022-10-08T23:01:23.836Z,101988.72
2022-10-08T23:03:51.311Z,101982.97
2022-10-08T23:06:22.102Z,101980.44
2022-10-08T23:08:53.487Z,101981.28
2022-10-08T23:11:20.202Z,101980.78
2022-10-08T23:13:50.810Z,101985.34
2022-10-08T23:16:17.545Z,101989.91
2022-10-08T23:18:46.477Z,101993.47
2022-10-08T23:21:16.001Z,101990.75
2022-10-08T23:23:46.195Z,102002.59
2022-10-08T23:26:13.373Z,102006.34
2022-10-08T23:28:40.695Z,102000.91
2022-10-08T23:31:16.128Z,102006.84
2022-10-08T23:33:44.897Z,102007.19
2022-10-08T23:36:14.311Z,102001.09
2022-10-08T23:38:41.237Z,102011.91
2022-10-08T23:41:10.637Z,102012.59
2022-10-08T23:43:40.350Z,102012.94
2022-10-08T23:46:08.170Z,102018.34
2022-10-08T23:48:35.204Z,102018.47
2022-10-08T23:51:02.779Z,102013.06
2022-10-08T23:53:29.422Z,102017.97
2022-10-08T23:55:56.272Z,102017.81
2022-10-08T23:58:23.027Z,102020.69
